sensor_id;sensor_type;location;lat;lon;timestamp;P1;durP1;ratioP1;P2;durP2;ratioP2
1308;SDS011;647;48.840;9.314;2024-02-16T00:01:49;63.57;;;7.20;;
1308;SDS011;647;48.840;9.314;2024-02-16T00:04:16;59.93;;;6.37;;
1308;SDS011;647;48.840;9.314;2024-02-16T00:06:43;62.53;;;7.90;;
1308;SDS011;647;48.840;9.314;2024-02-16T00:09:11;59.70;;;6.50;;
1308;SDS011;647;48.840;9.314;2024-02-16T00:11:39;65.93;;;7.70;;
1308;SDS011;647;48.840;9.314;2024-02-16T00:14:06;61.43;;;6.73;;
1308;SDS011;647;48.840;9.314;2024-02-16T00:16:34;62.47;;;7.00;;
1308;SDS011;647;48.840;9.314;2024-02-16T00:19:01;62.50;;;6.63;;
1308;SDS011;647;48.840;9.314;2024-02-16T00:21:28;67.97;;;7.87;;
1308;SDS011;647;48.840;9.314;2024-02-16T00:23:55;63.70;;;7.87;;
1308;SDS011;647;48.840;9.314;2024-02-16T00:26:24;63.93;;;7.07;;
1308;SDS011;647;48.840;9.314;2024-02-16T00:28:51;65.97;;;8.07;;
1308;SDS011;647;48.840;9.314;2024-02-16T00:31:18;60.87;;;6.80;;
1308;SDS011;647;48.840;9.314;2024-02-16T00:33:45;63.40;;;8.27;;
1308;SDS011;647;48.840;9.314;2024-02-16T00:36:12;62.23;;;7.00;;
1308;SDS011;647;48.840;9.314;2024-02-16T00:38:39;62.10;;;6.83;;
1308;SDS011;647;48.840;9.314;2024-02-16T00:41:06;61.87;;;6.97;;
1308;SDS011;647;48.840;9.314;2024-02-16T00:43:35;62.60;;;7.87;;
1308;SDS011;647;48.840;9.314;2024-02-16T00:46:02;60.53;;;7.20;;
1308;SDS011;647;48.840;9.314;2024-02-16T00:48:29;61.20;;;6.80;;
1308;SDS011;647;48.840;9.314;2024-02-16T00:50:56;59.70;;;5.90;;
1308;SDS011;647;48.840;9.314;2024-02-16T00:53:23;62.43;;;6.90;;
1308;SDS011;647;48.840;9.314;2024-02-16T00:55:51;59.90;;;6.00;;
1308;SDS011;647;48.840;9.314;2024-02-16T00:58:18;60.47;;;6.50;;
1308;SDS011;647;48.840;9.314;2024-02-16T01:00:46;64.10;;;7.33;;
1308;SDS011;647;48.840;9.314;2024-02-16T01:03:14;59.67;;;6.17;;
1308;SDS011;647;48.840;9.314;2024-02-16T01:05:41;60.10;;;6.60;;
1308;SDS011;647;48.840;9.314;2024-02-16T01:08:08;60.10;;;6.00;;
1308;SDS011;647;48.840;9.314;2024-02-16T01:10:35;59.53;;;6.47;;
1308;SDS011;647;48.840;9.314;2024-02-16T01:13:02;62.43;;;6.67;;
1308;SDS011;647;48.840;9.314;2024-02-16T01:15:30;64.57;;;7.10;;
1308;SDS011;647;48.840;9.314;2024-02-16T01:17:58;59.87;;;6.87;;
1308;SDS011;647;48.840;9.314;2024-02-16T01:20:26;60.20;;;6.57;;
1308;SDS011;647;48.840;9.314;2024-02-16T01:22:56;60.73;;;6.60;;
1308;SDS011;647;48.840;9.314;2024-02-16T01:25:23;62.30;;;6.80;;
1308;SDS011;647;48.840;9.314;2024-02-16T01:27:50;60.20;;;6.23;;
1308;SDS011;647;48.840;9.314;2024-02-16T01:30:17;61.30;;;6.70;;
1308;SDS011;647;48.840;9.314;2024-02-16T01:32:45;58.77;;;5.70;;
1308;SDS011;647;48.840;9.314;2024-02-16T01:35:13;61.50;;;6.87;;
1308;SDS011;647;48.840;9.314;2024-02-16T01:37:41;60.70;;;7.50;;
1308;SDS011;647;48.840;9.314;2024-02-16T01:40:08;59.33;;;5.37;;
1308;SDS011;647;48.840;9.314;2024-02-16T01:42:38;60.40;;;6.10;;
1308;SDS011;647;48.840;9.314;2024-02-16T01:45:06;60.87;;;7.07;;
1308;SDS011;647;48.840;9.314;2024-02-16T01:47:34;60.10;;;6.30;;
1308;SDS011;647;48.840;9.314;2024-02-16T01:50:01;61.67;;;6.40;;
1308;SDS011;647;48.840;9.314;2024-02-16T01:52:30;60.87;;;6.23;;
1308;SDS011;647;48.840;9.314;2024-02-16T01:54:59;61.93;;;7.33;;
1308;SDS011;647;48.840;9.314;2024-02-16T01:57:27;60.30;;;6.93;;
1308;SDS011;647;48.840;9.314;2024-02-16T01:59:55;59.80;;;6.00;;
1308;SDS011;647;48.840;9.314;2024-02-16T02:02:22;60.80;;;6.63;;
1308;SDS011;647;48.840;9.314;2024-02-16T02:04:49;62.27;;;5.63;;
1308;SDS011;647;48.840;9.314;2024-02-16T02:07:16;58.60;;;5.50;;
1308;SDS011;647;48.840;9.314;2024-02-16T02:09:44;61.40;;;5.60;;
1308;SDS011;647;48.840;9.314;2024-02-16T02:12:11;58.57;;;5.63;;
1308;SDS011;647;48.840;9.314;2024-02-16T02:14:38;63.10;;;6.10;;
1308;SDS011;647;48.840;9.314;2024-02-16T02:17:06;61.10;;;6.83;;
1308;SDS011;647;48.840;9.314;2024-02-16T02:19:34;58.67;;;5.50;;
1308;SDS011;647;48.840;9.314;2024-02-16T02:22:01;59.33;;;5.50;;
1308;SDS011;647;48.840;9.314;2024-02-16T02:24:30;58.90;;;5.70;;
1308;SDS011;647;48.840;9.314;2024-02-16T02:26:57;59.50;;;6.30;;
1308;SDS011;647;48.840;9.314;2024-02-16T02:29:24;60.73;;;5.33;;
1308;SDS011;647;48.840;9.314;2024-02-16T02:31:51;60.80;;;6.20;;
1308;SDS011;647;48.840;9.314;2024-02-16T02:34:19;61.17;;;6.40;;
1308;SDS011;647;48.840;9.314;2024-02-16T02:36:46;60.63;;;6.40;;
1308;SDS011;647;48.840;9.314;2024-02-16T02:39:14;61.93;;;5.77;;
1308;SDS011;647;48.840;9.314;2024-02-16T02:41:42;58.57;;;5.40;;
1308;SDS011;647;48.840;9.314;2024-02-16T02:44:10;59.50;;;6.27;;
1308;SDS011;647;48.840;9.314;2024-02-16T02:46:37;59.53;;;5.90;;
1308;SDS011;647;48.840;9.314;2024-02-16T02:49:04;59.87;;;5.70;;
1308;SDS011;647;48.840;9.314;2024-02-16T02:51:31;59.73;;;5.40;;
1308;SDS011;647;48.840;9.314;2024-02-16T02:53:58;58.10;;;5.03;;
1308;SDS011;647;48.840;9.314;2024-02-16T02:56:26;60.30;;;5.00;;
1308;SDS011;647;48.840;9.314;2024-02-16T02:58:54;62.97;;;5.40;;
1308;SDS011;647;48.840;9.314;2024-02-16T03:01:21;61.70;;;5.20;;
1308;SDS011;647;48.840;9.314;2024-02-16T03:03:48;61.90;;;5.70;;
1308;SDS011;647;48.840;9.314;2024-02-16T03:06:17;59.70;;;5.13;;
1308;SDS011;647;48.840;9.314;2024-02-16T03:08:44;58.90;;;5.50;;
1308;SDS011;647;48.840;9.314;2024-02-16T03:11:11;57.80;;;5.00;;
1308;SDS011;647;48.840;9.314;2024-02-16T03:13:39;60.27;;;5.60;;
1308;SDS011;647;48.840;9.314;2024-02-16T03:16:07;60.10;;;6.50;;
1308;SDS011;647;48.840;9.314;2024-02-16T03:18:34;58.97;;;5.77;;
1308;SDS011;647;48.840;9.314;2024-02-16T03:21:01;58.57;;;5.40;;
1308;SDS011;647;48.840;9.314;2024-02-16T03:23:29;58.47;;;5.00;;
1308;SDS011;647;48.840;9.314;2024-02-16T03:25:56;59.77;;;5.37;;
1308;SDS011;647;48.840;9.314;2024-02-16T03:28:23;59.20;;;5.90;;
1308;SDS011;647;48.840;9.314;2024-02-16T03:30:50;58.87;;;5.60;;
1308;SDS011;647;48.840;9.314;2024-02-16T03:33:20;63.47;;;5.80;;
1308;SDS011;647;48.840;9.314;2024-02-16T03:35:47;61.00;;;5.83;;
1308;SDS011;647;48.840;9.314;2024-02-16T03:38:14;59.10;;;5.47;;
1308;SDS011;647;48.840;9.314;2024-02-16T03:40:41;58.87;;;5.83;;
1308;SDS011;647;48.840;9.314;2024-02-16T03:43:08;58.80;;;5.30;;
1308;SDS011;647;48.840;9.314;2024-02-16T03:45:36;59.83;;;6.00;;
1308;SDS011;647;48.840;9.314;2024-02-16T03:48:04;58.67;;;5.50;;
1308;SDS011;647;48.840;9.314;2024-02-16T03:50:32;58.37;;;5.30;;
1308;SDS011;647;48.840;9.314;2024-02-16T03:53:00;59.80;;;5.23;;
1308;SDS011;647;48.840;9.314;2024-02-16T03:55:27;59.70;;;5.30;;
1308;SDS011;647;48.840;9.314;2024-02-16T03:57:56;59.27;;;4.80;;
1308;SDS011;647;48.840;9.314;2024-02-16T04:00:23;61.00;;;6.63;;
1308;SDS011;647;48.840;9.314;2024-02-16T04:02:51;58.47;;;5.00;;
1308;SDS011;647;48.840;9.314;2024-02-16T04:05:18;58.63;;;5.30;;
1308;SDS011;647;48.840;9.314;2024-02-16T04:07:46;62.17;;;5.80;;
1308;SDS011;647;48.840;9.314;2024-02-16T04:10:13;58.63;;;4.90;;
1308;SDS011;647;48.840;9.314;2024-02-16T04:12:40;58.93;;;4.80;;
1308;SDS011;647;48.840;9.314;2024-02-16T04:15:08;59.00;;;5.50;;
1308;SDS011;647;48.840;9.314;2024-02-16T04:17:35;60.57;;;5.60;;
1308;SDS011;647;48.840;9.314;2024-02-16T04:20:02;59.77;;;5.87;;
1308;SDS011;647;48.840;9.314;2024-02-16T04:22:29;59.27;;;5.80;;
1308;SDS011;647;48.840;9.314;2024-02-16T04:25:03;59.77;;;5.57;;
1308;SDS011;647;48.840;9.314;2024-02-16T04:27:31;58.67;;;5.90;;
1308;SDS011;647;48.840;9.314;2024-02-16T04:29:58;59.07;;;5.63;;
1308;SDS011;647;48.840;9.314;2024-02-16T04:32:25;58.50;;;5.23;;
1308;SDS011;647;48.840;9.314;2024-02-16T04:34:52;60.00;;;6.10;;
1308;SDS011;647;48.840;9.314;2024-02-16T04:37:21;58.67;;;6.10;;
1308;SDS011;647;48.840;9.314;2024-02-16T04:39:48;60.17;;;6.13;;
1308;SDS011;647;48.840;9.314;2024-02-16T04:42:17;58.73;;;5.50;;
1308;SDS011;647;48.840;9.314;2024-02-16T04:44:44;59.73;;;5.33;;
1308;SDS011;647;48.840;9.314;2024-02-16T04:47:11;59.27;;;5.27;;
1308;SDS011;647;48.840;9.314;2024-02-16T04:49:38;58.37;;;5.20;;
1308;SDS011;647;48.840;9.314;2024-02-16T04:52:05;59.10;;;5.03;;
1308;SDS011;647;48.840;9.314;2024-02-16T04:54:33;58.67;;;5.13;;
1308;SDS011;647;48.840;9.314;2024-02-16T04:57:01;59.20;;;5.60;;
1308;SDS011;647;48.840;9.314;2024-02-16T04:59:29;60.27;;;5.50;;
1308;SDS011;647;48.840;9.314;2024-02-16T05:01:56;60.33;;;5.40;;
1308;SDS011;647;48.840;9.314;2024-02-16T05:04:24;63.60;;;5.47;;
1308;SDS011;647;48.840;9.314;2024-02-16T05:06:51;58.17;;;5.10;;
1308;SDS011;647;48.840;9.314;2024-02-16T05:09:22;58.73;;;4.67;;
1308;SDS011;647;48.840;9.314;2024-02-16T05:11:51;59.83;;;5.17;;
1308;SDS011;647;48.840;9.314;2024-02-16T05:14:18;62.10;;;5.43;;
1308;SDS011;647;48.840;9.314;2024-02-16T05:16:47;57.57;;;4.93;;
1308;SDS011;647;48.840;9.314;2024-02-16T05:19:14;60.63;;;4.70;;
1308;SDS011;647;48.840;9.314;2024-02-16T05:21:42;58.37;;;4.93;;
1308;SDS011;647;48.840;9.314;2024-02-16T05:24:09;58.67;;;5.00;;
1308;SDS011;647;48.840;9.314;2024-02-16T05:26:36;58.40;;;4.67;;
1308;SDS011;647;48.840;9.314;2024-02-16T05:29:03;59.40;;;4.60;;
1308;SDS011;647;48.840;9.314;2024-02-16T05:31:30;64.03;;;5.67;;
1308;SDS011;647;48.840;9.314;2024-02-16T05:33:59;58.00;;;4.57;;
1308;SDS011;647;48.840;9.314;2024-02-16T05:36:26;58.30;;;4.60;;
1308;SDS011;647;48.840;9.314;2024-02-16T05:39:00;58.90;;;5.17;;
1308;SDS011;647;48.840;9.314;2024-02-16T05:41:35;59.23;;;4.90;;
1308;SDS011;647;48.840;9.314;2024-02-16T05:44:03;58.90;;;5.07;;
1308;SDS011;647;48.840;9.314;2024-02-16T05:46:30;58.87;;;5.00;;
1308;SDS011;647;48.840;9.314;2024-02-16T05:48:58;58.00;;;4.77;;
1308;SDS011;647;48.840;9.314;2024-02-16T05:51:34;59.10;;;5.23;;
1308;SDS011;647;48.840;9.314;2024-02-16T05:54:01;58.60;;;4.80;;
1308;SDS011;647;48.840;9.314;2024-02-16T05:56:28;61.13;;;5.00;;
1308;SDS011;647;48.840;9.314;2024-02-16T05:58:58;58.67;;;5.10;;
1308;SDS011;647;48.840;9.314;2024-02-16T06:01:25;62.03;;;5.13;;
1308;SDS011;647;48.840;9.314;2024-02-16T06:03:52;57.60;;;4.57;;
1308;SDS011;647;48.840;9.314;2024-02-16T06:06:20;59.30;;;5.73;;
1308;SDS011;647;48.840;9.314;2024-02-16T06:08:48;60.13;;;5.20;;
1308;SDS011;647;48.840;9.314;2024-02-16T06:11:15;60.57;;;5.73;;
1308;SDS011;647;48.840;9.314;2024-02-16T06:13:42;58.60;;;5.80;;
1308;SDS011;647;48.840;9.314;2024-02-16T06:16:09;57.90;;;4.90;;
1308;SDS011;647;48.840;9.314;2024-02-16T06:18:36;59.10;;;5.37;;
1308;SDS011;647;48.840;9.314;2024-02-16T06:21:04;58.60;;;4.80;;
1308;SDS011;647;48.840;9.314;2024-02-16T06:23:31;59.57;;;5.70;;
1308;SDS011;647;48.840;9.314;2024-02-16T06:25:59;58.87;;;5.37;;
1308;SDS011;647;48.840;9.314;2024-02-16T06:28:26;61.10;;;7.43;;
1308;SDS011;647;48.840;9.314;2024-02-16T06:30:53;61.80;;;6.50;;
1308;SDS011;647;48.840;9.314;2024-02-16T06:33:21;60.20;;;6.73;;
1308;SDS011;647;48.840;9.314;2024-02-16T06:35:48;59.70;;;6.20;;
1308;SDS011;647;48.840;9.314;2024-02-16T06:38:15;59.87;;;5.43;;
1308;SDS011;647;48.840;9.314;2024-02-16T06:40:42;59.87;;;6.00;;
1308;SDS011;647;48.840;9.314;2024-02-16T06:43:10;59.00;;;5.40;;
1308;SDS011;647;48.840;9.314;2024-02-16T06:45:38;60.43;;;5.40;;
1308;SDS011;647;48.840;9.314;2024-02-16T06:48:05;59.00;;;5.53;;
1308;SDS011;647;48.840;9.314;2024-02-16T06:50:32;58.10;;;4.87;;
1308;SDS011;647;48.840;9.314;2024-02-16T06:52:59;59.57;;;6.03;;
1308;SDS011;647;48.840;9.314;2024-02-16T06:55:26;59.40;;;5.63;;
1308;SDS011;647;48.840;9.314;2024-02-16T06:57:53;59.40;;;5.30;;
1308;SDS011;647;48.840;9.314;2024-02-16T07:00:22;59.03;;;5.63;;
1308;SDS011;647;48.840;9.314;2024-02-16T07:02:49;61.77;;;6.20;;
1308;SDS011;647;48.840;9.314;2024-02-16T07:05:16;58.77;;;4.90;;
1308;SDS011;647;48.840;9.314;2024-02-16T07:07:44;59.33;;;5.70;;
1308;SDS011;647;48.840;9.314;2024-02-16T07:10:11;60.60;;;5.90;;
1308;SDS011;647;48.840;9.314;2024-02-16T07:12:38;60.77;;;6.33;;
1308;SDS011;647;48.840;9.314;2024-02-16T07:15:06;62.10;;;6.60;;
1308;SDS011;647;48.840;9.314;2024-02-16T07:17:35;59.33;;;6.20;;
1308;SDS011;647;48.840;9.314;2024-02-16T07:20:02;61.07;;;6.50;;
1308;SDS011;647;48.840;9.314;2024-02-16T07:22:30;59.80;;;5.87;;
1308;SDS011;647;48.840;9.314;2024-02-16T07:24:57;62.23;;;6.30;;
1308;SDS011;647;48.840;9.314;2024-02-16T07:27:26;62.37;;;6.10;;
1308;SDS011;647;48.840;9.314;2024-02-16T07:29:53;66.73;;;5.53;;
1308;SDS011;647;48.840;9.314;2024-02-16T07:32:20;68.27;;;6.57;;
1308;SDS011;647;48.840;9.314;2024-02-16T07:34:48;60.80;;;6.23;;
1308;SDS011;647;48.840;9.314;2024-02-16T07:37:16;60.03;;;5.93;;
1308;SDS011;647;48.840;9.314;2024-02-16T07:39:43;59.53;;;5.23;;
1308;SDS011;647;48.840;9.314;2024-02-16T07:42:10;61.27;;;5.83;;
1308;SDS011;647;48.840;9.314;2024-02-16T07:44:37;61.90;;;6.27;;
1308;SDS011;647;48.840;9.314;2024-02-16T07:47:05;63.57;;;6.30;;
1308;SDS011;647;48.840;9.314;2024-02-16T07:49:32;58.07;;;5.00;;
1308;SDS011;647;48.840;9.314;2024-02-16T07:52:00;61.70;;;7.00;;
1308;SDS011;647;48.840;9.314;2024-02-16T07:54:27;59.20;;;5.60;;
1308;SDS011;647;48.840;9.314;2024-02-16T07:56:55;60.47;;;6.20;;
1308;SDS011;647;48.840;9.314;2024-02-16T07:59:24;61.83;;;6.03;;
1308;SDS011;647;48.840;9.314;2024-02-16T08:01:51;60.10;;;6.00;;
1308;SDS011;647;48.840;9.314;2024-02-16T08:04:18;59.30;;;5.67;;
1308;SDS011;647;48.840;9.314;2024-02-16T08:06:45;63.23;;;5.80;;
1308;SDS011;647;48.840;9.314;2024-02-16T08:09:14;59.23;;;6.20;;
1308;SDS011;647;48.840;9.314;2024-02-16T08:11:41;61.27;;;6.10;;
1308;SDS011;647;48.840;9.314;2024-02-16T08:14:09;60.70;;;5.50;;
1308;SDS011;647;48.840;9.314;2024-02-16T08:16:36;61.87;;;6.17;;
1308;SDS011;647;48.840;9.314;2024-02-16T08:19:03;59.77;;;6.43;;
1308;SDS011;647;48.840;9.314;2024-02-16T08:21:30;60.70;;;5.77;;
1308;SDS011;647;48.840;9.314;2024-02-16T08:23:57;60.87;;;6.63;;
1308;SDS011;647;48.840;9.314;2024-02-16T08:26:26;60.33;;;5.53;;
1308;SDS011;647;48.840;9.314;2024-02-16T08:28:53;61.40;;;5.53;;
1308;SDS011;647;48.840;9.314;2024-02-16T08:31:21;59.80;;;5.80;;
1308;SDS011;647;48.840;9.314;2024-02-16T08:33:48;58.60;;;5.17;;
1308;SDS011;647;48.840;9.314;2024-02-16T08:36:15;66.70;;;7.30;;
1308;SDS011;647;48.840;9.314;2024-02-16T08:38:42;61.50;;;6.00;;
1308;SDS011;647;48.840;9.314;2024-02-16T08:41:10;58.77;;;6.20;;
1308;SDS011;647;48.840;9.314;2024-02-16T08:43:38;60.10;;;6.10;;
1308;SDS011;647;48.840;9.314;2024-02-16T08:46:05;59.80;;;5.77;;
1308;SDS011;647;48.840;9.314;2024-02-16T08:48:33;61.40;;;6.47;;
1308;SDS011;647;48.840;9.314;2024-02-16T08:51:00;60.50;;;6.03;;
1308;SDS011;647;48.840;9.314;2024-02-16T08:53:27;62.70;;;6.07;;
1308;SDS011;647;48.840;9.314;2024-02-16T08:55:54;62.57;;;5.53;;
1308;SDS011;647;48.840;9.314;2024-02-16T08:58:21;61.77;;;6.40;;
1308;SDS011;647;48.840;9.314;2024-02-16T09:00:50;60.30;;;5.00;;
1308;SDS011;647;48.840;9.314;2024-02-16T09:03:17;58.67;;;5.13;;
1308;SDS011;647;48.840;9.314;2024-02-16T09:05:45;61.73;;;5.80;;
1308;SDS011;647;48.840;9.314;2024-02-16T09:08:12;59.00;;;5.10;;
1308;SDS011;647;48.840;9.314;2024-02-16T09:10:40;58.97;;;5.07;;
1308;SDS011;647;48.840;9.314;2024-02-16T09:13:07;58.47;;;5.03;;
1308;SDS011;647;48.840;9.314;2024-02-16T09:15:34;59.30;;;5.00;;
1308;SDS011;647;48.840;9.314;2024-02-16T09:18:03;58.17;;;4.23;;
1308;SDS011;647;48.840;9.314;2024-02-16T09:20:31;58.87;;;5.20;;
1308;SDS011;647;48.840;9.314;2024-02-16T09:22:58;59.03;;;4.70;;
1308;SDS011;647;48.840;9.314;2024-02-16T09:25:25;58.00;;;4.40;;
1308;SDS011;647;48.840;9.314;2024-02-16T09:27:52;59.27;;;4.40;;
1308;SDS011;647;48.840;9.314;2024-02-16T09:30:19;58.90;;;4.60;;
1308;SDS011;647;48.840;9.314;2024-02-16T09:32:46;58.07;;;4.33;;
1308;SDS011;647;48.840;9.314;2024-02-16T09:35:15;58.20;;;4.30;;
1308;SDS011;647;48.840;9.314;2024-02-16T09:37:42;58.67;;;4.00;;
1308;SDS011;647;48.840;9.314;2024-02-16T09:40:11;62.53;;;5.13;;
1308;SDS011;647;48.840;9.314;2024-02-16T09:42:38;58.47;;;4.93;;
1308;SDS011;647;48.840;9.314;2024-02-16T09:45:06;58.00;;;4.50;;
1308;SDS011;647;48.840;9.314;2024-02-16T09:47:34;58.00;;;4.37;;
1308;SDS011;647;48.840;9.314;2024-02-16T09:50:02;59.30;;;4.70;;
1308;SDS011;647;48.840;9.314;2024-02-16T09:52:31;58.40;;;4.60;;
1308;SDS011;647;48.840;9.314;2024-02-16T09:54:58;58.80;;;4.50;;
1308;SDS011;647;48.840;9.314;2024-02-16T09:57:25;57.60;;;4.33;;
1308;SDS011;647;48.840;9.314;2024-02-16T09:59:52;58.77;;;4.50;;
1308;SDS011;647;48.840;9.314;2024-02-16T10:02:21;60.50;;;4.40;;
1308;SDS011;647;48.840;9.314;2024-02-16T10:04:48;59.10;;;4.50;;
1308;SDS011;647;48.840;9.314;2024-02-16T10:07:15;59.90;;;5.10;;
1308;SDS011;647;48.840;9.314;2024-02-16T10:09:44;59.07;;;4.30;;
1308;SDS011;647;48.840;9.314;2024-02-16T10:12:17;58.60;;;4.40;;
1308;SDS011;647;48.840;9.314;2024-02-16T10:14:53;68.20;;;4.40;;
1308;SDS011;647;48.840;9.314;2024-02-16T10:17:20;59.73;;;4.47;;
1308;SDS011;647;48.840;9.314;2024-02-16T10:19:54;59.37;;;4.57;;
1308;SDS011;647;48.840;9.314;2024-02-16T10:22:21;60.87;;;4.80;;
1308;SDS011;647;48.840;9.314;2024-02-16T10:24:50;59.47;;;4.30;;
1308;SDS011;647;48.840;9.314;2024-02-16T10:27:17;65.70;;;5.33;;
1308;SDS011;647;48.840;9.314;2024-02-16T10:29:46;59.70;;;4.27;;
1308;SDS011;647;48.840;9.314;2024-02-16T10:32:15;58.23;;;4.50;;
1308;SDS011;647;48.840;9.314;2024-02-16T10:34:42;59.63;;;5.00;;
1308;SDS011;647;48.840;9.314;2024-02-16T10:37:12;58.60;;;4.90;;
1308;SDS011;647;48.840;9.314;2024-02-16T10:39:40;59.40;;;4.57;;
1308;SDS011;647;48.840;9.314;2024-02-16T10:42:09;61.30;;;5.37;;
1308;SDS011;647;48.840;9.314;2024-02-16T10:44:37;60.77;;;4.90;;
1308;SDS011;647;48.840;9.314;2024-02-16T10:47:07;58.77;;;4.47;;
1308;SDS011;647;48.840;9.314;2024-02-16T10:49:34;58.70;;;4.90;;
1308;SDS011;647;48.840;9.314;2024-02-16T10:52:01;65.10;;;5.20;;
1308;SDS011;647;48.840;9.314;2024-02-16T10:54:32;59.33;;;4.70;;
1308;SDS011;647;48.840;9.314;2024-02-16T10:57:00;58.73;;;4.70;;
1308;SDS011;647;48.840;9.314;2024-02-16T10:59:37;61.30;;;5.50;;
1308;SDS011;647;48.840;9.314;2024-02-16T11:02:05;59.20;;;4.73;;
1308;SDS011;647;48.840;9.314;2024-02-16T11:04:36;58.70;;;3.90;;
1308;SDS011;647;48.840;9.314;2024-02-16T11:07:10;58.27;;;4.33;;
1308;SDS011;647;48.840;9.314;2024-02-16T11:09:38;59.63;;;4.50;;
1308;SDS011;647;48.840;9.314;2024-02-16T11:12:06;58.40;;;4.33;;
1308;SDS011;647;48.840;9.314;2024-02-16T11:14:35;60.20;;;4.43;;
1308;SDS011;647;48.840;9.314;2024-02-16T11:17:07;59.90;;;4.80;;
1308;SDS011;647;48.840;9.314;2024-02-16T11:19:34;62.20;;;4.77;;
1308;SDS011;647;48.840;9.314;2024-02-16T11:22:02;58.27;;;3.90;;
1308;SDS011;647;48.840;9.314;2024-02-16T11:24:32;59.60;;;4.00;;
1308;SDS011;647;48.840;9.314;2024-02-16T11:27:02;57.70;;;4.13;;
1308;SDS011;647;48.840;9.314;2024-02-16T11:29:30;59.50;;;4.80;;
1308;SDS011;647;48.840;9.314;2024-02-16T11:32:00;58.67;;;4.17;;
1308;SDS011;647;48.840;9.314;2024-02-16T11:34:27;59.27;;;4.47;;
1308;SDS011;647;48.840;9.314;2024-02-16T11:36:55;57.83;;;3.80;;
1308;SDS011;647;48.840;9.314;2024-02-16T11:39:22;59.30;;;4.10;;
1308;SDS011;647;48.840;9.314;2024-02-16T11:41:58;59.90;;;5.00;;
1308;SDS011;647;48.840;9.314;2024-02-16T11:44:26;59.23;;;4.30;;
1308;SDS011;647;48.840;9.314;2024-02-16T11:46:53;61.40;;;4.90;;
1308;SDS011;647;48.840;9.314;2024-02-16T11:49:22;59.93;;;4.63;;
1308;SDS011;647;48.840;9.314;2024-02-16T11:51:49;58.43;;;4.30;;
1308;SDS011;647;48.840;9.314;2024-02-16T11:54:16;61.30;;;4.47;;
1308;SDS011;647;48.840;9.314;2024-02-16T11:56:44;58.40;;;4.13;;
1308;SDS011;647;48.840;9.314;2024-02-16T11:59:12;60.70;;;4.40;;
1308;SDS011;647;48.840;9.314;2024-02-16T12:01:47;59.80;;;4.50;;
1308;SDS011;647;48.840;9.314;2024-02-16T12:04:19;58.00;;;4.13;;
1308;SDS011;647;48.840;9.314;2024-02-16T12:06:47;57.50;;;4.20;;
1308;SDS011;647;48.840;9.314;2024-02-16T12:09:15;62.60;;;4.93;;
1308;SDS011;647;48.840;9.314;2024-02-16T12:11:42;59.20;;;4.00;;
1308;SDS011;647;48.840;9.314;2024-02-16T12:14:09;64.70;;;4.10;;
1308;SDS011;647;48.840;9.314;2024-02-16T12:16:37;58.73;;;3.87;;
1308;SDS011;647;48.840;9.314;2024-02-16T12:19:04;57.63;;;4.00;;
1308;SDS011;647;48.840;9.314;2024-02-16T12:21:31;57.60;;;3.90;;
1308;SDS011;647;48.840;9.314;2024-02-16T12:24:00;57.83;;;4.30;;
1308;SDS011;647;48.840;9.314;2024-02-16T12:26:27;60.37;;;4.30;;
1308;SDS011;647;48.840;9.314;2024-02-16T12:28:54;60.90;;;4.13;;
1308;SDS011;647;48.840;9.314;2024-02-16T12:31:21;58.50;;;4.17;;
1308;SDS011;647;48.840;9.314;2024-02-16T12:33:48;59.20;;;4.47;;
1308;SDS011;647;48.840;9.314;2024-02-16T12:36:15;57.97;;;4.00;;
1308;SDS011;647;48.840;9.314;2024-02-16T12:38:42;58.60;;;4.10;;
1308;SDS011;647;48.840;9.314;2024-02-16T12:41:11;58.50;;;4.00;;
1308;SDS011;647;48.840;9.314;2024-02-16T12:43:38;58.77;;;4.47;;
1308;SDS011;647;48.840;9.314;2024-02-16T12:46:05;58.30;;;4.20;;
1308;SDS011;647;48.840;9.314;2024-02-16T12:48:32;58.37;;;4.27;;
1308;SDS011;647;48.840;9.314;2024-02-16T12:50:59;57.90;;;3.80;;
1308;SDS011;647;48.840;9.314;2024-02-16T12:53:26;58.30;;;3.33;;
1308;SDS011;647;48.840;9.314;2024-02-16T12:55:58;57.97;;;3.87;;
1308;SDS011;647;48.840;9.314;2024-02-16T12:58:27;60.50;;;3.87;;
1308;SDS011;647;48.840;9.314;2024-02-16T13:00:55;59.27;;;3.87;;
1308;SDS011;647;48.840;9.314;2024-02-16T13:03:22;58.00;;;3.80;;
1308;SDS011;647;48.840;9.314;2024-02-16T13:05:49;57.97;;;3.60;;
1308;SDS011;647;48.840;9.314;2024-02-16T13:08:16;57.97;;;4.00;;
1308;SDS011;647;48.840;9.314;2024-02-16T13:10:43;57.63;;;3.87;;
1308;SDS011;647;48.840;9.314;2024-02-16T13:13:10;58.47;;;3.97;;
1308;SDS011;647;48.840;9.314;2024-02-16T13:15:38;58.87;;;4.27;;
1308;SDS011;647;48.840;9.314;2024-02-16T13:18:06;58.70;;;4.93;;
1308;SDS011;647;48.840;9.314;2024-02-16T13:20:33;65.33;;;5.50;;
1308;SDS011;647;48.840;9.314;2024-02-16T13:23:00;58.20;;;4.30;;
1308;SDS011;647;48.840;9.314;2024-02-16T13:25:27;61.30;;;5.17;;
1308;SDS011;647;48.840;9.314;2024-02-16T13:27:54;59.77;;;4.70;;
1308;SDS011;647;48.840;9.314;2024-02-16T13:30:21;58.77;;;4.33;;
1308;SDS011;647;48.840;9.314;2024-02-16T13:32:50;60.30;;;4.03;;
1308;SDS011;647;48.840;9.314;2024-02-16T13:35:17;57.80;;;4.20;;
1308;SDS011;647;48.840;9.314;2024-02-16T13:37:44;57.77;;;4.20;;
1308;SDS011;647;48.840;9.314;2024-02-16T13:40:12;67.70;;;5.40;;
1308;SDS011;647;48.840;9.314;2024-02-16T13:42:39;59.93;;;4.40;;
1308;SDS011;647;48.840;9.314;2024-02-16T13:45:07;59.00;;;4.50;;
1308;SDS011;647;48.840;9.314;2024-02-16T13:47:34;57.67;;;4.90;;
1308;SDS011;647;48.840;9.314;2024-02-16T13:50:03;64.17;;;4.57;;
1308;SDS011;647;48.840;9.314;2024-02-16T13:52:30;59.67;;;4.90;;
1308;SDS011;647;48.840;9.314;2024-02-16T13:54:57;59.57;;;4.33;;
1308;SDS011;647;48.840;9.314;2024-02-16T13:57:24;57.67;;;4.40;;
1308;SDS011;647;48.840;9.314;2024-02-16T13:59:52;58.27;;;4.90;;
1308;SDS011;647;48.840;9.314;2024-02-16T14:02:19;60.47;;;5.13;;
1308;SDS011;647;48.840;9.314;2024-02-16T14:04:46;57.80;;;3.80;;
1308;SDS011;647;48.840;9.314;2024-02-16T14:07:14;60.47;;;4.40;;
1308;SDS011;647;48.840;9.314;2024-02-16T14:09:41;61.07;;;5.10;;
1308;SDS011;647;48.840;9.314;2024-02-16T14:12:08;58.30;;;3.77;;
1308;SDS011;647;48.840;9.314;2024-02-16T14:14:37;59.73;;;4.87;;
1308;SDS011;647;48.840;9.314;2024-02-16T14:17:04;58.00;;;3.80;;
1308;SDS011;647;48.840;9.314;2024-02-16T14:19:31;61.00;;;4.07;;
1308;SDS011;647;48.840;9.314;2024-02-16T14:21:59;57.57;;;3.70;;
1308;SDS011;647;48.840;9.314;2024-02-16T14:24:27;58.87;;;4.83;;
1308;SDS011;647;48.840;9.314;2024-02-16T14:26:54;59.23;;;3.83;;
1308;SDS011;647;48.840;9.314;2024-02-16T14:29:22;59.57;;;3.93;;
1308;SDS011;647;48.840;9.314;2024-02-16T14:31:49;58.93;;;3.70;;
1308;SDS011;647;48.840;9.314;2024-02-16T14:34:17;57.80;;;4.33;;
1308;SDS011;647;48.840;9.314;2024-02-16T14:36:44;58.37;;;3.90;;
1308;SDS011;647;48.840;9.314;2024-02-16T14:39:11;57.10;;;3.73;;
1308;SDS011;647;48.840;9.314;2024-02-16T14:41:39;60.10;;;4.23;;
1308;SDS011;647;48.840;9.314;2024-02-16T14:44:06;58.57;;;3.60;;
1308;SDS011;647;48.840;9.314;2024-02-16T14:46:35;63.77;;;4.53;;
1308;SDS011;647;48.840;9.314;2024-02-16T14:49:02;58.00;;;3.57;;
1308;SDS011;647;48.840;9.314;2024-02-16T14:51:33;59.73;;;4.30;;
1308;SDS011;647;48.840;9.314;2024-02-16T14:54:01;58.60;;;4.10;;
1308;SDS011;647;48.840;9.314;2024-02-16T14:56:29;59.23;;;3.83;;
1308;SDS011;647;48.840;9.314;2024-02-16T14:58:57;59.17;;;3.70;;
1308;SDS011;647;48.840;9.314;2024-02-16T15:01:24;57.87;;;3.87;;
1308;SDS011;647;48.840;9.314;2024-02-16T15:03:52;60.30;;;4.40;;
1308;SDS011;647;48.840;9.314;2024-02-16T15:06:19;60.90;;;3.93;;
1308;SDS011;647;48.840;9.314;2024-02-16T15:08:46;57.07;;;3.30;;
1308;SDS011;647;48.840;9.314;2024-02-16T15:11:13;59.63;;;4.23;;
1308;SDS011;647;48.840;9.314;2024-02-16T15:13:42;58.27;;;3.20;;
1308;SDS011;647;48.840;9.314;2024-02-16T15:16:11;60.60;;;3.70;;
1308;SDS011;647;48.840;9.314;2024-02-16T15:18:38;59.00;;;3.37;;